sensor_id;sensor_type;location;lat;lon;timestamp;P1;durP1;ratioP1;P2;durP2;ratioP2
75628;SDS011;64213;46.452;16.994;2023-02-24T00:00:19;39.40;;;18.27;;
75628;SDS011;64213;46.452;16.994;2023-02-24T00:03:34;41.40;;;19.02;;
75628;SDS011;64213;46.452;16.994;2023-02-24T00:06:39;39.75;;;18.73;;
75628;SDS011;64213;46.452;16.994;2023-02-24T00:09:42;38.97;;;17.90;;
75628;SDS011;64213;46.452;16.994;2023-02-24T00:12:45;42.13;;;19.67;;
75628;SDS011;64213;46.452;16.994;2023-02-24T00:16:00;38.07;;;17.50;;
75628;SDS011;64213;46.452;16.994;2023-02-24T00:19:04;38.78;;;17.33;;
75628;SDS011;64213;46.452;16.994;2023-02-24T00:22:10;37.28;;;16.73;;
75628;SDS011;64213;46.452;16.994;2023-02-24T00:25:12;41.35;;;17.77;;
75628;SDS011;64213;46.452;16.994;2023-02-24T00:28:15;39.57;;;18.60;;
75628;SDS011;64213;46.452;16.994;2023-02-24T00:31:17;40.13;;;16.93;;
75628;SDS011;64213;46.452;16.994;2023-02-24T00:34:22;35.55;;;15.73;;
75628;SDS011;64213;46.452;16.994;2023-02-24T00:37:24;37.28;;;17.95;;
75628;SDS011;64213;46.452;16.994;2023-02-24T00:40:27;32.17;;;15.38;;
75628;SDS011;64213;46.452;16.994;2023-02-24T00:43:31;34.60;;;14.97;;
75628;SDS011;64213;46.452;16.994;2023-02-24T00:46:39;35.27;;;15.23;;
75628;SDS011;64213;46.452;16.994;2023-02-24T00:49:43;33.63;;;16.87;;
75628;SDS011;64213;46.452;16.994;2023-02-24T00:52:47;36.67;;;16.77;;
75628;SDS011;64213;46.452;16.994;2023-02-24T00:55:57;39.25;;;16.98;;
75628;SDS011;64213;46.452;16.994;2023-02-24T00:59:01;36.13;;;16.00;;
75628;SDS011;64213;46.452;16.994;2023-02-24T01:02:04;35.40;;;16.67;;
75628;SDS011;64213;46.452;16.994;2023-02-24T01:05:12;35.58;;;16.05;;
75628;SDS011;64213;46.452;16.994;2023-02-24T01:08:14;41.95;;;18.50;;
75628;SDS011;64213;46.452;16.994;2023-02-24T01:11:23;36.58;;;16.77;;
75628;SDS011;64213;46.452;16.994;2023-02-24T01:14:47;39.97;;;17.67;;
75628;SDS011;64213;46.452;16.994;2023-02-24T01:17:51;40.40;;;16.80;;
75628;SDS011;64213;46.452;16.994;2023-02-24T01:20:53;38.90;;;16.90;;
75628;SDS011;64213;46.452;16.994;2023-02-24T01:23:56;42.00;;;18.23;;
75628;SDS011;64213;46.452;16.994;2023-02-24T01:26:58;38.40;;;16.80;;
75628;SDS011;64213;46.452;16.994;2023-02-24T01:30:01;42.17;;;17.20;;
75628;SDS011;64213;46.452;16.994;2023-02-24T01:33:05;37.30;;;15.63;;
75628;SDS011;64213;46.452;16.994;2023-02-24T01:36:09;41.33;;;16.42;;
75628;SDS011;64213;46.452;16.994;2023-02-24T01:39:17;37.55;;;17.20;;
75628;SDS011;64213;46.452;16.994;2023-02-24T01:42:19;34.70;;;16.12;;
75628;SDS011;64213;46.452;16.994;2023-02-24T01:45:26;41.37;;;18.30;;
75628;SDS011;64213;46.452;16.994;2023-02-24T01:48:30;40.47;;;17.70;;
75628;SDS011;64213;46.452;16.994;2023-02-24T01:51:33;37.78;;;16.58;;
75628;SDS011;64213;46.452;16.994;2023-02-24T01:54:41;42.72;;;18.65;;
75628;SDS011;64213;46.452;16.994;2023-02-24T01:57:47;38.13;;;19.20;;
75628;SDS011;64213;46.452;16.994;2023-02-24T02:00:51;43.97;;;20.43;;
75628;SDS011;64213;46.452;16.994;2023-02-24T02:03:54;45.30;;;19.70;;
75628;SDS011;64213;46.452;16.994;2023-02-24T02:07:05;45.55;;;19.90;;
75628;SDS011;64213;46.452;16.994;2023-02-24T02:10:11;44.70;;;20.27;;
75628;SDS011;64213;46.452;16.994;2023-02-24T02:13:14;41.58;;;19.65;;
75628;SDS011;64213;46.452;16.994;2023-02-24T02:30:09;44.15;;;21.05;;
75628;SDS011;64213;46.452;16.994;2023-02-24T02:37:15;46.83;;;21.77;;
75628;SDS011;64213;46.452;16.994;2023-02-24T02:40:24;47.92;;;20.35;;
75628;SDS011;64213;46.452;16.994;2023-02-24T02:43:40;46.40;;;22.15;;
75628;SDS011;64213;46.452;16.994;2023-02-24T02:47:17;48.72;;;20.92;;
75628;SDS011;64213;46.452;16.994;2023-02-24T02:50:39;43.57;;;19.57;;
75628;SDS011;64213;46.452;16.994;2023-02-24T02:57:40;43.72;;;18.98;;
75628;SDS011;64213;46.452;16.994;2023-02-24T03:00:37;38.53;;;16.15;;
75628;SDS011;64213;46.452;16.994;2023-02-24T03:03:52;42.67;;;19.30;;
75628;SDS011;64213;46.452;16.994;2023-02-24T03:07:00;40.37;;;18.03;;
75628;SDS011;64213;46.452;16.994;2023-02-24T03:10:07;40.97;;;17.70;;
75628;SDS011;64213;46.452;16.994;2023-02-24T03:13:20;41.05;;;16.83;;
75628;SDS011;64213;46.452;16.994;2023-02-24T03:16:24;44.67;;;17.77;;
75628;SDS011;64213;46.452;16.994;2023-02-24T03:19:29;43.13;;;18.08;;
75628;SDS011;64213;46.452;16.994;2023-02-24T03:22:40;36.60;;;17.77;;
75628;SDS011;64213;46.452;16.994;2023-02-24T03:29:28;41.83;;;16.40;;
75628;SDS011;64213;46.452;16.994;2023-02-24T03:32:41;39.30;;;17.30;;
75628;SDS011;64213;46.452;16.994;2023-02-24T03:35:56;38.60;;;17.80;;
75628;SDS011;64213;46.452;16.994;2023-02-24T03:39:02;35.97;;;17.67;;
75628;SDS011;64213;46.452;16.994;2023-02-24T03:42:08;39.30;;;17.00;;
75628;SDS011;64213;46.452;16.994;2023-02-24T03:45:15;40.53;;;17.05;;
75628;SDS011;64213;46.452;16.994;2023-02-24T03:48:18;39.72;;;17.08;;
75628;SDS011;64213;46.452;16.994;2023-02-24T03:51:21;41.47;;;19.48;;
75628;SDS011;64213;46.452;16.994;2023-02-24T04:08:02;38.78;;;17.10;;
75628;SDS011;64213;46.452;16.994;2023-02-24T04:14:20;38.00;;;16.10;;
75628;SDS011;64213;46.452;16.994;2023-02-24T04:17:37;41.30;;;17.23;;
75628;SDS011;64213;46.452;16.994;2023-02-24T04:20:44;34.63;;;15.27;;
75628;SDS011;64213;46.452;16.994;2023-02-24T04:23:54;38.60;;;16.02;;
75628;SDS011;64213;46.452;16.994;2023-02-24T04:26:58;37.93;;;17.27;;
75628;SDS011;64213;46.452;16.994;2023-02-24T04:30:05;39.33;;;15.90;;
75628;SDS011;64213;46.452;16.994;2023-02-24T04:33:14;42.20;;;16.40;;
75628;SDS011;64213;46.452;16.994;2023-02-24T04:36:16;35.25;;;16.48;;
75628;SDS011;64213;46.452;16.994;2023-02-24T04:39:19;36.30;;;15.88;;
75628;SDS011;64213;46.452;16.994;2023-02-24T04:42:24;37.90;;;16.77;;
75628;SDS011;64213;46.452;16.994;2023-02-24T04:45:27;37.53;;;16.03;;
75628;SDS011;64213;46.452;16.994;2023-02-24T04:48:31;37.38;;;13.35;;
75628;SDS011;64213;46.452;16.994;2023-02-24T04:51:34;37.03;;;16.73;;
75628;SDS011;64213;46.452;16.994;2023-02-24T04:54:37;40.70;;;16.20;;
75628;SDS011;64213;46.452;16.994;2023-02-24T04:57:39;41.07;;;17.83;;
75628;SDS011;64213;46.452;16.994;2023-02-24T05:00:41;49.27;;;15.33;;
75628;SDS011;64213;46.452;16.994;2023-02-24T05:03:43;34.15;;;14.98;;
75628;SDS011;64213;46.452;16.994;2023-02-24T05:06:46;45.45;;;19.40;;
75628;SDS011;64213;46.452;16.994;2023-02-24T05:09:49;23.75;;;10.75;;
75628;SDS011;64213;46.452;16.994;2023-02-24T05:12:52;26.43;;;8.17;;
75628;SDS011;64213;46.452;16.994;2023-02-24T05:15:59;39.00;;;14.57;;
75628;SDS011;64213;46.452;16.994;2023-02-24T05:19:09;43.30;;;16.25;;
75628;SDS011;64213;46.452;16.994;2023-02-24T05:22:30;41.42;;;17.87;;
75628;SDS011;64213;46.452;16.994;2023-02-24T05:25:32;49.00;;;18.75;;
75628;SDS011;64213;46.452;16.994;2023-02-24T05:28:38;30.80;;;12.20;;
75628;SDS011;64213;46.452;16.994;2023-02-24T05:31:41;45.20;;;17.57;;
75628;SDS011;64213;46.452;16.994;2023-02-24T05:34:44;48.17;;;18.52;;
75628;SDS011;64213;46.452;16.994;2023-02-24T05:37:47;46.80;;;20.08;;
75628;SDS011;64213;46.452;16.994;2023-02-24T05:40:49;47.97;;;17.75;;
75628;SDS011;64213;46.452;16.994;2023-02-24T05:43:58;41.33;;;16.27;;
75628;SDS011;64213;46.452;16.994;2023-02-24T05:47:03;49.03;;;20.30;;
75628;SDS011;64213;46.452;16.994;2023-02-24T05:50:06;50.17;;;19.50;;
75628;SDS011;64213;46.452;16.994;2023-02-24T05:53:10;46.00;;;18.02;;
75628;SDS011;64213;46.452;16.994;2023-02-24T05:56:13;45.80;;;18.48;;
75628;SDS011;64213;46.452;16.994;2023-02-24T05:59:15;50.10;;;20.07;;
75628;SDS011;64213;46.452;16.994;2023-02-24T06:02:22;44.80;;;17.67;;
75628;SDS011;64213;46.452;16.994;2023-02-24T06:05:28;49.78;;;20.35;;
75628;SDS011;64213;46.452;16.994;2023-02-24T06:08:31;43.13;;;17.50;;
75628;SDS011;64213;46.452;16.994;2023-02-24T06:11:42;46.15;;;18.35;;
75628;SDS011;64213;46.452;16.994;2023-02-24T06:14:46;38.93;;;17.67;;
75628;SDS011;64213;46.452;16.994;2023-02-24T06:17:48;49.80;;;19.70;;
75628;SDS011;64213;46.452;16.994;2023-02-24T06:20:51;50.63;;;21.02;;
75628;SDS011;64213;46.452;16.994;2023-02-24T06:23:54;46.72;;;18.80;;
75628;SDS011;64213;46.452;16.994;2023-02-24T06:26:58;51.35;;;19.87;;
75628;SDS011;64213;46.452;16.994;2023-02-24T06:30:10;48.37;;;21.03;;
75628;SDS011;64213;46.452;16.994;2023-02-24T06:33:13;48.30;;;19.57;;
75628;SDS011;64213;46.452;16.994;2023-02-24T06:36:15;45.83;;;18.02;;
75628;SDS011;64213;46.452;16.994;2023-02-24T06:39:18;48.97;;;18.75;;
75628;SDS011;64213;46.452;16.994;2023-02-24T06:42:20;36.53;;;15.80;;
75628;SDS011;64213;46.452;16.994;2023-02-24T06:45:23;42.83;;;18.10;;
75628;SDS011;64213;46.452;16.994;2023-02-24T06:48:26;38.77;;;15.73;;
75628;SDS011;64213;46.452;16.994;2023-02-24T06:51:28;40.75;;;15.70;;
75628;SDS011;64213;46.452;16.994;2023-02-24T06:54:31;36.83;;;14.65;;
75628;SDS011;64213;46.452;16.994;2023-02-24T06:57:36;42.95;;;18.08;;
75628;SDS011;64213;46.452;16.994;2023-02-24T07:00:39;45.37;;;19.07;;
75628;SDS011;64213;46.452;16.994;2023-02-24T07:03:41;46.00;;;17.37;;
75628;SDS011;64213;46.452;16.994;2023-02-24T07:07:07;45.50;;;17.65;;
75628;SDS011;64213;46.452;16.994;2023-02-24T07:10:11;45.05;;;17.02;;
75628;SDS011;64213;46.452;16.994;2023-02-24T07:13:14;41.63;;;16.33;;
75628;SDS011;64213;46.452;16.994;2023-02-24T07:16:18;44.23;;;18.47;;
75628;SDS011;64213;46.452;16.994;2023-02-24T07:19:22;43.77;;;16.70;;
75628;SDS011;64213;46.452;16.994;2023-02-24T07:22:27;38.38;;;14.02;;
75628;SDS011;64213;46.452;16.994;2023-02-24T07:25:33;38.00;;;13.60;;
75628;SDS011;64213;46.452;16.994;2023-02-24T07:28:36;32.63;;;12.98;;
75628;SDS011;64213;46.452;16.994;2023-02-24T07:31:42;35.57;;;15.03;;
75628;SDS011;64213;46.452;16.994;2023-02-24T07:34:44;36.47;;;13.87;;
75628;SDS011;64213;46.452;16.994;2023-02-24T07:37:46;33.35;;;12.15;;
75628;SDS011;64213;46.452;16.994;2023-02-24T07:40:49;27.08;;;11.27;;
75628;SDS011;64213;46.452;16.994;2023-02-24T07:43:52;31.02;;;11.80;;
75628;SDS011;64213;46.452;16.994;2023-02-24T07:46:55;35.50;;;14.27;;
75628;SDS011;64213;46.452;16.994;2023-02-24T07:50:00;33.10;;;14.13;;
75628;SDS011;64213;46.452;16.994;2023-02-24T07:53:03;19.15;;;8.52;;
75628;SDS011;64213;46.452;16.994;2023-02-24T07:56:06;38.63;;;14.13;;
75628;SDS011;64213;46.452;16.994;2023-02-24T07:59:14;31.65;;;12.37;;
75628;SDS011;64213;46.452;16.994;2023-02-24T08:02:18;33.97;;;14.03;;
75628;SDS011;64213;46.452;16.994;2023-02-24T08:05:21;22.77;;;8.87;;
75628;SDS011;64213;46.452;16.994;2023-02-24T08:08:25;38.35;;;14.50;;
75628;SDS011;64213;46.452;16.994;2023-02-24T08:11:28;34.38;;;13.02;;
75628;SDS011;64213;46.452;16.994;2023-02-24T08:14:39;33.85;;;12.93;;
75628;SDS011;64213;46.452;16.994;2023-02-24T08:17:45;37.70;;;13.57;;
75628;SDS011;64213;46.452;16.994;2023-02-24T08:20:48;48.70;;;15.90;;
75628;SDS011;64213;46.452;16.994;2023-02-24T08:23:53;41.53;;;14.45;;
75628;SDS011;64213;46.452;16.994;2023-02-24T08:26:55;33.28;;;11.88;;
75628;SDS011;64213;46.452;16.994;2023-02-24T08:30:06;32.65;;;11.88;;
75628;SDS011;64213;46.452;16.994;2023-02-24T08:33:21;36.40;;;12.00;;
75628;SDS011;64213;46.452;16.994;2023-02-24T08:36:23;32.70;;;11.70;;
75628;SDS011;64213;46.452;16.994;2023-02-24T08:39:26;35.53;;;14.20;;
75628;SDS011;64213;46.452;16.994;2023-02-24T08:42:37;50.45;;;13.57;;
75628;SDS011;64213;46.452;16.994;2023-02-24T08:45:39;37.72;;;13.15;;
75628;SDS011;64213;46.452;16.994;2023-02-24T08:48:42;32.77;;;13.70;;
75628;SDS011;64213;46.452;16.994;2023-02-24T08:51:45;18.70;;;8.07;;
75628;SDS011;64213;46.452;16.994;2023-02-24T08:54:49;30.75;;;12.37;;
75628;SDS011;64213;46.452;16.994;2023-02-24T08:57:51;26.37;;;10.30;;
75628;SDS011;64213;46.452;16.994;2023-02-24T09:00:57;27.62;;;11.90;;
75628;SDS011;64213;46.452;16.994;2023-02-24T09:04:05;26.30;;;10.57;;
75628;SDS011;64213;46.452;16.994;2023-02-24T09:07:13;29.70;;;11.20;;
75628;SDS011;64213;46.452;16.994;2023-02-24T09:10:17;31.60;;;10.88;;
75628;SDS011;64213;46.452;16.994;2023-02-24T09:13:20;29.15;;;11.18;;
75628;SDS011;64213;46.452;16.994;2023-02-24T09:16:23;24.65;;;9.65;;
75628;SDS011;64213;46.452;16.994;2023-02-24T09:19:25;31.87;;;11.60;;
75628;SDS011;64213;46.452;16.994;2023-02-24T09:22:47;27.57;;;9.87;;
75628;SDS011;64213;46.452;16.994;2023-02-24T09:25:58;29.50;;;11.10;;
75628;SDS011;64213;46.452;16.994;2023-02-24T09:29:12;31.27;;;10.10;;
75628;SDS011;64213;46.452;16.994;2023-02-24T09:32:35;27.45;;;8.70;;
75628;SDS011;64213;46.452;16.994;2023-02-24T09:35:38;28.58;;;10.48;;
75628;SDS011;64213;46.452;16.994;2023-02-24T09:38:43;19.80;;;7.23;;
75628;SDS011;64213;46.452;16.994;2023-02-24T09:42:02;25.25;;;10.25;;
75628;SDS011;64213;46.452;16.994;2023-02-24T09:45:24;24.63;;;8.60;;
75628;SDS011;64213;46.452;16.994;2023-02-24T09:51:55;27.23;;;9.93;;
75628;SDS011;64213;46.452;16.994;2023-02-24T10:01:52;29.05;;;10.75;;
75628;SDS011;64213;46.452;16.994;2023-02-24T10:08:57;23.92;;;9.95;;
75628;SDS011;64213;46.452;16.994;2023-02-24T10:12:16;24.40;;;8.87;;
75628;SDS011;64213;46.452;16.994;2023-02-24T10:15:29;25.40;;;9.68;;
75628;SDS011;64213;46.452;16.994;2023-02-24T10:18:59;22.20;;;8.18;;
75628;SDS011;64213;46.452;16.994;2023-02-24T10:22:17;18.10;;;6.70;;
75628;SDS011;64213;46.452;16.994;2023-02-24T10:32:33;24.87;;;9.75;;
75628;SDS011;64213;46.452;16.994;2023-02-24T10:36:04;27.95;;;9.52;;
75628;SDS011;64213;46.452;16.994;2023-02-24T10:39:20;26.48;;;9.35;;
75628;SDS011;64213;46.452;16.994;2023-02-24T10:42:28;23.02;;;9.63;;
75628;SDS011;64213;46.452;16.994;2023-02-24T10:45:39;24.17;;;9.70;;
75628;SDS011;64213;46.452;16.994;2023-02-24T10:48:50;24.17;;;9.82;;
75628;SDS011;64213;46.452;16.994;2023-02-24T10:52:01;25.12;;;10.88;;
75628;SDS011;64213;46.452;16.994;2023-02-24T10:55:21;25.58;;;10.30;;
75628;SDS011;64213;46.452;16.994;2023-02-24T10:58:45;23.02;;;9.80;;
75628;SDS011;64213;46.452;16.994;2023-02-24T11:01:55;18.83;;;7.80;;
75628;SDS011;64213;46.452;16.994;2023-02-24T11:05:07;27.50;;;11.60;;
75628;SDS011;64213;46.452;16.994;2023-02-24T11:08:28;25.20;;;9.27;;
75628;SDS011;64213;46.452;16.994;2023-02-24T11:11:55;24.60;;;8.93;;
75628;SDS011;64213;46.452;16.994;2023-02-24T11:15:25;25.70;;;9.20;;
75628;SDS011;64213;46.452;16.994;2023-02-24T11:19:09;23.37;;;10.33;;
75628;SDS011;64213;46.452;16.994;2023-02-24T11:22:16;19.15;;;7.55;;
75628;SDS011;64213;46.452;16.994;2023-02-24T11:32:32;19.65;;;9.07;;
75628;SDS011;64213;46.452;16.994;2023-02-24T11:36:10;21.03;;;7.73;;
75628;SDS011;64213;46.452;16.994;2023-02-24T11:45:48;21.50;;;8.50;;
75628;SDS011;64213;46.452;16.994;2023-02-24T11:48:55;21.80;;;8.68;;
75628;SDS011;64213;46.452;16.994;2023-02-24T11:52:01;23.10;;;9.57;;
75628;SDS011;64213;46.452;16.994;2023-02-24T11:55:11;20.50;;;6.25;;
75628;SDS011;64213;46.452;16.994;2023-02-24T11:59:21;20.98;;;8.25;;
75628;SDS011;64213;46.452;16.994;2023-02-24T12:05:26;19.90;;;7.32;;
75628;SDS011;64213;46.452;16.994;2023-02-24T12:08:38;16.43;;;6.50;;
75628;SDS011;64213;46.452;16.994;2023-02-24T12:12:03;20.15;;;7.00;;
75628;SDS011;64213;46.452;16.994;2023-02-24T12:15:24;19.42;;;8.45;;
75628;SDS011;64213;46.452;16.994;2023-02-24T12:18:36;18.92;;;6.72;;
75628;SDS011;64213;46.452;16.994;2023-02-24T12:21:42;19.15;;;7.50;;
75628;SDS011;64213;46.452;16.994;2023-02-24T12:24:50;17.33;;;6.70;;
75628;SDS011;64213;46.452;16.994;2023-02-24T12:28:03;15.55;;;5.45;;
75628;SDS011;64213;46.452;16.994;2023-02-24T12:38:25;16.48;;;6.12;;
75628;SDS011;64213;46.452;16.994;2023-02-24T12:42:05;14.53;;;5.60;;
75628;SDS011;64213;46.452;16.994;2023-02-24T12:45:24;21.37;;;6.25;;
75628;SDS011;64213;46.452;16.994;2023-02-24T12:55:22;15.07;;;5.47;;
75628;SDS011;64213;46.452;16.994;2023-02-24T12:58:32;16.57;;;6.57;;
75628;SDS011;64213;46.452;16.994;2023-02-24T13:05:23;17.23;;;5.75;;
75628;SDS011;64213;46.452;16.994;2023-02-24T13:15:23;19.03;;;6.40;;
75628;SDS011;64213;46.452;16.994;2023-02-24T13:18:28;16.75;;;6.62;;
75628;SDS011;64213;46.452;16.994;2023-02-24T13:21:32;16.30;;;5.97;;
75628;SDS011;64213;46.452;16.994;2023-02-24T13:24:34;14.68;;;5.57;;
75628;SDS011;64213;46.452;16.994;2023-02-24T13:27:38;15.27;;;6.10;;
75628;SDS011;64213;46.452;16.994;2023-02-24T13:30:43;16.27;;;5.30;;
75628;SDS011;64213;46.452;16.994;2023-02-24T13:33:45;14.10;;;5.37;;
75628;SDS011;64213;46.452;16.994;2023-02-24T13:36:49;17.12;;;6.93;;
75628;SDS011;64213;46.452;16.994;2023-02-24T13:39:51;14.00;;;5.05;;
75628;SDS011;64213;46.452;16.994;2023-02-24T13:46:02;17.27;;;5.97;;
75628;SDS011;64213;46.452;16.994;2023-02-24T13:49:22;9.77;;;3.67;;
75628;SDS011;64213;46.452;16.994;2023-02-24T14:03:10;14.50;;;5.33;;
75628;SDS011;64213;46.452;16.994;2023-02-24T14:06:24;12.73;;;4.75;;
75628;SDS011;64213;46.452;16.994;2023-02-24T14:09:31;11.73;;;3.97;;
75628;SDS011;64213;46.452;16.994;2023-02-24T14:12:39;15.27;;;4.37;;
75628;SDS011;64213;46.452;16.994;2023-02-24T14:15:43;10.80;;;4.30;;
75628;SDS011;64213;46.452;16.994;2023-02-24T14:18:52;13.43;;;4.67;;
75628;SDS011;64213;46.452;16.994;2023-02-24T14:21:58;16.75;;;5.05;;
75628;SDS011;64213;46.452;16.994;2023-02-24T14:25:03;13.75;;;5.10;;
75628;SDS011;64213;46.452;16.994;2023-02-24T14:28:12;13.15;;;4.60;;
75628;SDS011;64213;46.452;16.994;2023-02-24T14:31:22;11.90;;;4.03;;
75628;SDS011;64213;46.452;16.994;2023-02-24T14:34:27;14.30;;;5.03;;
75628;SDS011;64213;46.452;16.994;2023-02-24T14:37:31;15.55;;;5.40;;
75628;SDS011;64213;46.452;16.994;2023-02-24T14:40:37;13.82;;;4.20;;
75628;SDS011;64213;46.452;16.994;2023-02-24T14:43:48;12.10;;;4.20;;
75628;SDS011;64213;46.452;16.994;2023-02-24T14:46:52;10.93;;;4.35;;
75628;SDS011;64213;46.452;16.994;2023-02-24T14:50:00;18.73;;;4.97;;
75628;SDS011;64213;46.452;16.994;2023-02-24T14:53:06;15.65;;;5.43;;
75628;SDS011;64213;46.452;16.994;2023-02-24T14:56:17;12.95;;;4.45;;
75628;SDS011;64213;46.452;16.994;2023-02-24T14:59:26;14.00;;;4.78;;
75628;SDS011;64213;46.452;16.994;2023-02-24T15:02:31;13.73;;;4.87;;
75628;SDS011;64213;46.452;16.994;2023-02-24T15:05:37;17.17;;;5.50;;
75628;SDS011;64213;46.452;16.994;2023-02-24T15:08:47;13.23;;;4.07;;
75628;SDS011;64213;46.452;16.994;2023-02-24T15:11:53;16.50;;;5.25;;
75628;SDS011;64213;46.452;16.994;2023-02-24T15:14:58;13.77;;;3.55;;
75628;SDS011;64213;46.452;16.994;2023-02-24T15:18:22;14.43;;;6.12;;
75628;SDS011;64213;46.452;16.994;2023-02-24T15:21:30;17.00;;;5.27;;
75628;SDS011;64213;46.452;16.994;2023-02-24T15:24:40;16.15;;;5.20;;
75628;SDS011;64213;46.452;16.994;2023-02-24T15:27:59;13.88;;;5.03;;
75628;SDS011;64213;46.452;16.994;2023-02-24T15:31:21;13.60;;;4.93;;
75628;SDS011;64213;46.452;16.994;2023-02-24T15:34:27;14.10;;;4.53;;
75628;SDS011;64213;46.452;16.994;2023-02-24T15:37:41;19.13;;;5.43;;
75628;SDS011;64213;46.452;16.994;2023-02-24T15:40:52;15.80;;;4.32;;
75628;SDS011;64213;46.452;16.994;2023-02-24T15:43:57;13.70;;;4.45;;
75628;SDS011;64213;46.452;16.994;2023-02-24T15:47:11;12.52;;;4.40;;
75628;SDS011;64213;46.452;16.994;2023-02-24T15:50:23;16.42;;;5.57;;
75628;SDS011;64213;46.452;16.994;2023-02-24T15:53:25;13.17;;;4.90;;
75628;SDS011;64213;46.452;16.994;2023-02-24T15:56:27;14.57;;;5.50;;
75628;SDS011;64213;46.452;16.994;2023-02-24T15:59:32;16.80;;;5.35;;
75628;SDS011;64213;46.452;16.994;2023-02-24T16:02:35;16.80;;;5.87;;
75628;SDS011;64213;46.452;16.994;2023-02-24T16:05:38;17.70;;;5.80;;
75628;SDS011;64213;46.452;16.994;2023-02-24T16:08:40;15.13;;;5.30;;
75628;SDS011;64213;46.452;16.994;2023-02-24T16:11:46;15.77;;;5.45;;
75628;SDS011;64213;46.452;16.994;2023-02-24T16:14:50;15.73;;;5.40;;
75628;SDS011;64213;46.452;16.994;2023-02-24T16:17:58;19.67;;;6.97;;
75628;SDS011;64213;46.452;16.994;2023-02-24T16:21:03;20.23;;;6.13;;
75628;SDS011;64213;46.452;16.994;2023-02-24T16:24:06;17.17;;;6.07;;
75628;SDS011;64213;46.452;16.994;2023-02-24T16:27:12;18.05;;;6.45;;
75628;SDS011;64213;46.452;16.994;2023-02-24T16:30:18;18.92;;;5.53;;
75628;SDS011;64213;46.452;16.994;2023-02-24T16:33:23;17.17;;;5.85;;
75628;SDS011;64213;46.452;16.994;2023-02-24T16:36:26;18.33;;;6.13;;
75628;SDS011;64213;46.452;16.994;2023-02-24T16:39:29;18.83;;;6.57;;
75628;SDS011;64213;46.452;16.994;2023-02-24T16:42:32;17.35;;;6.50;;
75628;SDS011;64213;46.452;16.994;2023-02-24T16:45:34;17.98;;;6.85;;
75628;SDS011;64213;46.452;16.994;2023-02-24T16:48:38;16.12;;;5.03;;
75628;SDS011;64213;46.452;16.994;2023-02-24T16:51:42;18.00;;;6.83;;
75628;SDS011;64213;46.452;16.994;2023-02-24T16:54:44;18.20;;;6.60;;
75628;SDS011;64213;46.452;16.994;2023-02-24T16:57:48;17.20;;;5.78;;
75628;SDS011;64213;46.452;16.994;2023-02-24T17:00:51;19.35;;;7.55;;
75628;SDS011;64213;46.452;16.994;2023-02-24T17:03:58;17.58;;;6.80;;
75628;SDS011;64213;46.452;16.994;2023-02-24T17:07:01;16.27;;;7.07;;
75628;SDS011;64213;46.452;16.994;2023-02-24T17:10:04;12.47;;;4.97;;
75628;SDS011;64213;46.452;16.994;2023-02-24T17:13:15;15.90;;;6.53;;
75628;SDS011;64213;46.452;16.994;2023-02-24T17:16:19;22.33;;;7.03;;
75628;SDS011;64213;46.452;16.994;2023-02-24T17:19:22;20.98;;;6.55;;
75628;SDS011;64213;46.452;16.994;2023-02-24T17:22:24;13.40;;;3.77;;
75628;SDS011;64213;46.452;16.994;2023-02-24T17:25:28;17.57;;;6.90;;
75628;SDS011;64213;46.452;16.994;2023-02-24T17:28:32;16.67;;;5.70;;
75628;SDS011;64213;46.452;16.994;2023-02-24T17:31:35;22.70;;;8.18;;
75628;SDS011;64213;46.452;16.994;2023-02-24T17:34:41;22.37;;;7.93;;
75628;SDS011;64213;46.452;16.994;2023-02-24T17:37:43;20.37;;;8.03;;
75628;SDS011;64213;46.452;16.994;2023-02-24T17:40:45;21.80;;;8.97;;
75628;SDS011;64213;46.452;16.994;2023-02-24T17:43:51;15.50;;;7.00;;
75628;SDS011;64213;46.452;16.994;2023-02-24T17:46:54;20.12;;;8.00;;
75628;SDS011;64213;46.452;16.994;2023-02-24T17:49:57;20.20;;;8.30;;
75628;SDS011;64213;46.452;16.994;2023-02-24T17:53:01;19.80;;;6.73;;
75628;SDS011;64213;46.452;16.994;2023-02-24T17:56:04;17.17;;;5.87;;
75628;SDS011;64213;46.452;16.994;2023-02-24T17:59:07;20.65;;;7.53;;
75628;SDS011;64213;46.452;16.994;2023-02-24T18:02:10;16.23;;;6.28;;
75628;SDS011;64213;46.452;16.994;2023-02-24T18:05:14;14.30;;;5.90;;
75628;SDS011;64213;46.452;16.994;2023-02-24T18:08:17;23.23;;;8.30;;
75628;SDS011;64213;46.452;16.994;2023-02-24T18:11:19;21.97;;;9.00;;
75628;SDS011;64213;46.452;16.994;2023-02-24T18:14:22;23.10;;;7.95;;
75628;SDS011;64213;46.452;16.994;2023-02-24T18:17:24;27.13;;;10.63;;
75628;SDS011;64213;46.452;16.994;2023-02-24T18:20:27;24.27;;;7.80;;
75628;SDS011;64213;46.452;16.994;2023-02-24T18:23:31;21.70;;;8.30;;
75628;SDS011;64213;46.452;16.994;2023-02-24T18:26:34;23.83;;;10.13;;
75628;SDS011;64213;46.452;16.994;2023-02-24T18:29:37;18.25;;;8.00;;
75628;SDS011;64213;46.452;16.994;2023-02-24T18:32:40;22.75;;;9.30;;
75628;SDS011;64213;46.452;16.994;2023-02-24T18:35:45;19.70;;;7.87;;
75628;SDS011;64213;46.452;16.994;2023-02-24T18:38:49;21.50;;;8.70;;
75628;SDS011;64213;46.452;16.994;2023-02-24T18:41:52;24.03;;;9.73;;
75628;SDS011;64213;46.452;16.994;2023-02-24T18:44:55;21.27;;;9.13;;
75628;SDS011;64213;46.452;16.994;2023-02-24T18:47:58;21.10;;;9.38;;
75628;SDS011;64213;46.452;16.994;2023-02-24T18:51:06;21.33;;;6.82;;
75628;SDS011;64213;46.452;16.994;2023-02-24T18:54:09;21.27;;;9.27;;
75628;SDS011;64213;46.452;16.994;2023-02-24T18:57:12;18.10;;;6.50;;
75628;SDS011;64213;46.452;16.994;2023-02-24T19:00:15;22.65;;;9.25;;
75628;SDS011;64213;46.452;16.994;2023-02-24T19:03:19;21.05;;;9.25;;
75628;SDS011;64213;46.452;16.994;2023-02-24T19:06:22;24.23;;;9.40;;
75628;SDS011;64213;46.452;16.994;2023-02-24T19:09:31;22.20;;;9.53;;
75628;SDS011;64213;46.452;16.994;2023-02-24T19:12:34;20.97;;;7.97;;
75628;SDS011;64213;46.452;16.994;2023-02-24T19:15:37;25.62;;;8.55;;
75628;SDS011;64213;46.452;16.994;2023-02-24T19:18:41;32.63;;;8.43;;
75628;SDS011;64213;46.452;16.994;2023-02-24T19:21:45;21.20;;;8.82;;
75628;SDS011;64213;46.452;16.994;2023-02-24T19:24:49;23.20;;;8.43;;
75628;SDS011;64213;46.452;16.994;2023-02-24T19:27:52;22.83;;;8.60;;
75628;SDS011;64213;46.452;16.994;2023-02-24T19:30:55;18.85;;;7.68;;
75628;SDS011;64213;46.452;16.994;2023-02-24T19:34:04;22.70;;;9.48;;
75628;SDS011;64213;46.452;16.994;2023-02-24T19:37:12;20.12;;;7.40;;
75628;SDS011;64213;46.452;16.994;2023-02-24T19:40:15;25.97;;;9.80;;
75628;SDS011;64213;46.452;16.994;2023-02-24T19:43:19;21.07;;;8.57;;
75628;SDS011;64213;46.452;16.994;2023-02-24T19:46:22;21.52;;;7.82;;
75628;SDS011;64213;46.452;16.994;2023-02-24T19:49:27;17.70;;;7.30;;
75628;SDS011;64213;46.452;16.994;2023-02-24T19:52:30;20.80;;;8.85;;
75628;SDS011;64213;46.452;16.994;2023-02-24T19:55:33;26.17;;;9.57;;
75628;SDS011;64213;46.452;16.994;2023-02-24T19:58:36;18.70;;;7.40;;
75628;SDS011;64213;46.452;16.994;2023-02-24T20:01:39;26.25;;;10.40;;
75628;SDS011;64213;46.452;16.994;2023-02-24T20:04:42;24.37;;;9.20;;